Time;durP1;ratioP1;P1;durP2;ratioP2;P2;SDS_P1;SDS_P2;PMS_P1;PMS_P2;Temp;Humidity;BMP_temperature;BMP_pressure;BME280_temperature;BME280_humidity;BME280_pressure;Samples;Min_cycle;Max_cycle;Signal;HPM_P1;HPM_P2
2023/06/24 00:00:18;;;;;;;;;;;25.10;54.50;;;;;;5071930;28;19916;-53
2023/06/24 00:02:45;;;;;;;;;;;25.10;54.50;;;;;;5070597;28;20414;-55
2023/06/24 00:05:10;;;;;;;;;;;25.10;54.50;;;;;;5067655;28;19916;-54
2023/06/24 00:07:43;;;;;;;;;;;25.10;54.50;;;;;;5071089;28;20276;-55
2023/06/24 00:10:09;;;;;;;;;;;25.10;54.50;;;;;;5077817;28;20295;-54
2023/06/24 00:12:35;;;;;;;;;;;25.10;54.50;;;;;;5104680;28;19909;-54
2023/06/24 00:15:00;;;;;;;;;;;25.10;54.50;;;;;;5070913;28;19919;-54
2023/06/24 00:17:28;;;;;;;;;;;25.10;54.50;;;;;;5070767;28;19940;-54
2023/06/24 00:19:54;;;;;;;;;;;25.10;54.50;;;;;;5071817;28;19912;-54
2023/06/24 00:22:20;;;;;;;;;;;25.10;54.60;;;;;;5072255;28;20265;-54
2023/06/24 00:24:45;;;;;;;;;;;25.10;54.60;;;;;;5072535;28;19939;-53
2023/06/24 00:27:11;;;;;;;;;;;25.10;54.60;;;;;;5075791;28;19909;-55
2023/06/24 00:29:36;;;;;;;;;;;25.10;54.60;;;;;;5060659;28;19917;-54
2023/06/24 00:32:01;;;;;;;;;;;25.10;54.70;;;;;;5061328;28;19913;-54
2023/06/24 00:34:27;;;;;;;;;;;25.10;54.80;;;;;;5074205;28;19920;-54
2023/06/24 00:36:52;;;;;;;;;;;25.00;54.80;;;;;;5099206;28;20018;-54
2023/06/24 00:39:18;;;;;;;;;;;25.00;54.80;;;;;;5067254;28;19916;-54
2023/06/24 00:41:43;;;;;;;;;;;25.00;54.80;;;;;;5073450;28;20261;-55
2023/06/24 00:44:09;;;;;;;;;;;25.00;54.90;;;;;;5075432;28;19912;-54
2023/06/24 00:46:34;;;;;;;;;;;25.00;55.00;;;;;;5074096;28;19970;-54
2023/06/24 00:49:02;;;;;;;;;;;25.00;55.00;;;;;;5069494;28;19912;-54
2023/06/24 00:51:30;;;;;;;;;;;25.00;55.00;;;;;;5053605;28;19995;-55
2023/06/24 00:53:55;;;;;;;;;;;25.00;55.00;;;;;;5054068;28;19909;-54
2023/06/24 00:56:21;;;;;;;;;;;25.00;55.00;;;;;;5054366;28;19909;-55
2023/06/24 00:58:47;;;;;;;;;;;24.90;54.90;;;;;;5073284;28;19920;-54
2023/06/24 01:01:12;;;;;;;;;;;24.90;54.90;;;;;;5069393;28;19913;-54
2023/06/24 01:03:38;;;;;;;;;;;24.90;55.70;;;;;;5072665;28;19927;-54
2023/06/24 01:06:03;;;;;;;;;;;24.90;55.00;;;;;;5072023;28;19918;-54
2023/06/24 01:08:29;;;;;;;;;;;24.90;55.10;;;;;;5072953;28;19912;-54
2023/06/24 01:10:54;;;;;;;;;;;24.90;55.10;;;;;;5072357;28;19913;-55
2023/06/24 01:13:20;;;;;;;;;;;24.90;55.10;;;;;;5073265;28;20424;-54
2023/06/24 01:15:45;;;;;;;;;;;24.90;55.10;;;;;;5073282;28;20309;-54
2023/06/24 01:18:29;;;;;;;;;;;24.80;55.10;;;;;;5072349;28;19919;-53
2023/06/24 01:20:56;;;;;;;;;;;24.90;55.20;;;;;;5073017;28;19940;-54
2023/06/24 01:23:34;;;;;;;;;;;24.90;55.10;;;;;;5088144;28;19936;-55
2023/06/24 01:26:07;;;;;;;;;;;24.90;55.20;;;;;;5052373;28;20027;-54
2023/06/24 01:28:33;;;;;;;;;;;24.90;55.20;;;;;;5063551;28;19955;-54
2023/06/24 01:31:18;;;;;;;;;;;24.90;55.10;;;;;;5072810;28;20340;-54
2023/06/24 01:33:48;;;;;;;;;;;24.90;55.10;;;;;;5071119;28;20372;-54
2023/06/24 01:36:14;;;;;;;;;;;24.90;55.00;;;;;;5069590;28;19960;-54
2023/06/24 01:38:47;;;;;;;;;;;24.90;55.00;;;;;;5105612;28;19956;-54
2023/06/24 01:41:13;;;;;;;;;;;24.90;55.00;;;;;;5104777;28;19959;-54
2023/06/24 01:43:38;;;;;;;;;;;24.90;55.10;;;;;;5085102;28;19964;-54
2023/06/24 01:46:04;;;;;;;;;;;24.90;55.20;;;;;;4991194;28;1751335;-54
2023/06/24 01:48:29;;;;;;;;;;;24.90;55.20;;;;;;5072558;28;19913;-54
2023/06/24 01:50:57;;;;;;;;;;;24.90;55.10;;;;;;5106181;28;19993;-54
2023/06/24 01:53:22;;;;;;;;;;;24.80;55.20;;;;;;5073783;28;20295;-54
2023/06/24 01:55:48;;;;;;;;;;;24.80;55.20;;;;;;5101358;28;20003;-54
2023/06/24 01:58:13;;;;;;;;;;;24.80;55.30;;;;;;5095359;28;20304;-54
2023/06/24 02:00:39;;;;;;;;;;;24.80;55.20;;;;;;5070738;28;20007;-54
2023/06/24 02:03:04;;;;;;;;;;;24.80;55.20;;;;;;5074347;28;19960;-54
2023/06/24 02:05:30;;;;;;;;;;;24.80;55.10;;;;;;5073053;28;19912;-54
2023/06/24 02:07:56;;;;;;;;;;;24.80;55.20;;;;;;5102730;28;20292;-55
2023/06/24 02:10:21;;;;;;;;;;;24.90;55.20;;;;;;5073001;28;19927;-55
2023/06/24 02:12:48;;;;;;;;;;;24.90;55.10;;;;;;5072617;28;19927;-54
2023/06/24 02:15:13;;;;;;;;;;;24.80;55.00;;;;;;5073169;28;19912;-54
2023/06/24 02:17:39;;;;;;;;;;;24.80;55.10;;;;;;5095963;28;19973;-54
2023/06/24 02:20:06;;;;;;;;;;;24.90;55.10;;;;;;5071842;28;19912;-54
2023/06/24 02:22:31;;;;;;;;;;;24.90;55.10;;;;;;5071164;28;20007;-54
2023/06/24 02:24:57;;;;;;;;;;;24.90;55.10;;;;;;5073000;28;20003;-54
2023/06/24 02:27:22;;;;;;;;;;;24.90;55.10;;;;;;5062030;28;19909;-53
2023/06/24 02:29:48;;;;;;;;;;;24.80;55.00;;;;;;5051336;28;19913;-54
2023/06/24 02:32:13;;;;;;;;;;;24.90;55.10;;;;;;5060070;28;19969;-55
2023/06/24 02:34:39;;;;;;;;;;;24.80;55.00;;;;;;5088448;28;20424;-53
2023/06/24 02:37:04;;;;;;;;;;;24.80;55.00;;;;;;5069921;28;20288;-54
2023/06/24 02:39:30;;;;;;;;;;;24.80;55.00;;;;;;5072540;28;19912;-54
2023/06/24 02:41:55;;;;;;;;;;;24.90;55.00;;;;;;5072752;28;19916;-54
2023/06/24 02:44:21;;;;;;;;;;;24.80;55.00;;;;;;5072138;28;20163;-55
2023/06/24 02:46:46;;;;;;;;;;;24.90;55.00;;;;;;5071155;28;19931;-55
2023/06/24 02:49:12;;;;;;;;;;;24.80;55.00;;;;;;5069530;28;19916;-54
2023/06/24 02:51:38;;;;;;;;;;;24.80;54.90;;;;;;5070926;28;20003;-54
2023/06/24 02:54:03;;;;;;;;;;;24.80;54.90;;;;;;5050992;28;20031;-54
2023/06/24 02:56:29;;;;;;;;;;;24.80;54.90;;;;;;5070478;28;20391;-54
2023/06/24 02:58:54;;;;;;;;;;;24.90;54.90;;;;;;5072059;28;19956;-54
2023/06/24 03:01:24;;;;;;;;;;;24.80;54.90;;;;;;5091479;28;19919;-53
2023/06/24 03:03:52;;;;;;;;;;;24.80;54.90;;;;;;5052251;28;19916;-54
2023/06/24 03:06:18;;;;;;;;;;;24.80;54.80;;;;;;5069515;28;19955;-54
2023/06/24 03:08:44;;;;;;;;;;;24.80;54.90;;;;;;5104929;28;19959;-55
2023/06/24 03:11:11;;;;;;;;;;;24.80;54.80;;;;;;5093882;28;19950;-54
2023/06/24 03:13:37;;;;;;;;;;;24.90;54.70;;;;;;5063741;28;19909;-54
2023/06/24 03:16:02;;;;;;;;;;;24.90;54.70;;;;;;5071564;28;20292;-54
2023/06/24 03:18:28;;;;;;;;;;;24.90;54.80;;;;;;5072189;28;19908;-54
2023/06/24 03:20:53;;;;;;;;;;;24.90;54.90;;;;;;5072137;28;20361;-54
2023/06/24 03:23:19;;;;;;;;;;;24.90;54.80;;;;;;5069863;28;20304;-54
2023/06/24 03:25:44;;;;;;;;;;;24.80;54.80;;;;;;5071824;28;19974;-54
2023/06/24 03:28:09;;;;;;;;;;;24.80;54.80;;;;;;5071289;28;20017;-54
2023/06/24 03:30:35;;;;;;;;;;;24.80;54.70;;;;;;5072071;28;19908;-54
2023/06/24 03:33:01;;;;;;;;;;;24.80;54.70;;;;;;5071905;28;19908;-54
2023/06/24 03:35:27;;;;;;;;;;;24.80;54.60;;;;;;5071918;28;20001;-54
2023/06/24 03:37:52;;;;;;;;;;;24.90;54.70;;;;;;5070119;28;19966;-54
2023/06/24 03:40:18;;;;;;;;;;;24.80;54.60;;;;;;5070830;28;19967;-54
2023/06/24 03:42:43;;;;;;;;;;;24.80;54.70;;;;;;5069541;28;19923;-55
2023/06/24 03:45:09;;;;;;;;;;;24.80;54.70;;;;;;5052777;28;19981;-54
2023/06/24 03:47:34;;;;;;;;;;;24.80;54.70;;;;;;5063425;28;20369;-54
2023/06/24 03:50:00;;;;;;;;;;;24.90;54.50;;;;;;5072095;28;19919;-55
2023/06/24 03:52:25;;;;;;;;;;;24.90;54.60;;;;;;5065699;28;20376;-54
2023/06/24 03:54:51;;;;;;;;;;;24.90;54.50;;;;;;5071070;28;20376;-54
2023/06/24 03:57:16;;;;;;;;;;;24.90;54.50;;;;;;5066823;28;19912;-54
2023/06/24 03:59:42;;;;;;;;;;;24.80;54.50;;;;;;5069976;28;19923;-54
2023/06/24 04:02:10;;;;;;;;;;;24.80;54.60;;;;;;5062988;28;20048;-54
2023/06/24 04:04:35;;;;;;;;;;;24.80;54.70;;;;;;5067190;28;19986;-54
2023/06/24 04:07:01;;;;;;;;;;;24.70;54.70;;;;;;5075245;28;19913;-54
2023/06/24 04:09:26;;;;;;;;;;;24.70;54.60;;;;;;5073953;28;19958;-54
2023/06/24 04:11:52;;;;;;;;;;;24.80;54.70;;;;;;5074545;28;19913;-54
2023/06/24 04:14:17;;;;;;;;;;;24.80;54.70;;;;;;5108241;28;19913;-54
2023/06/24 04:16:43;;;;;;;;;;;24.70;54.70;;;;;;5071266;28;19909;-55
2023/06/24 04:19:08;;;;;;;;;;;24.70;54.60;;;;;;5072500;28;19920;-54
2023/06/24 04:21:34;;;;;;;;;;;24.70;54.70;;;;;;5069702;28;19912;-54
2023/06/24 04:23:59;;;;;;;;;;;24.70;54.60;;;;;;5074861;28;19916;-55
2023/06/24 04:26:25;;;;;;;;;;;24.70;54.40;;;;;;5075329;28;19908;-54
2023/06/24 04:28:50;;;;;;;;;;;24.80;54.60;;;;;;5101995;28;20385;-54
2023/06/24 04:31:15;;;;;;;;;;;24.80;54.60;;;;;;5075022;28;20380;-54
2023/06/24 04:33:41;;;;;;;;;;;24.70;54.50;;;;;;5075113;28;20361;-54
2023/06/24 04:36:06;;;;;;;;;;;24.70;54.60;;;;;;5074739;28;20428;-55
2023/06/24 04:38:32;;;;;;;;;;;24.70;55.10;;;;;;5073554;28;20304;-54
2023/06/24 04:40:59;;;;;;;;;;;24.70;54.50;;;;;;5074951;28;20343;-54
2023/06/24 04:43:25;;;;;;;;;;;24.70;54.50;;;;;;5074587;28;20362;-54
2023/06/24 04:45:50;;;;;;;;;;;24.80;54.50;;;;;;5074802;28;20392;-54
2023/06/24 04:48:16;;;;;;;;;;;24.80;54.40;;;;;;5073633;28;19966;-55
2023/06/24 04:50:41;;;;;;;;;;;24.80;54.30;;;;;;5074906;28;19909;-54
2023/06/24 04:53:07;;;;;;;;;;;24.80;54.40;;;;;;5063202;28;19909;-55
2023/06/24 04:55:32;;;;;;;;;;;24.70;54.30;;;;;;5074641;28;19926;-54
2023/06/24 04:57:58;;;;;;;;;;;24.70;54.30;;;;;;5072160;28;19966;-54
2023/06/24 05:00:24;;;;;;;;;;;24.80;54.40;;;;;;5059884;28;20313;-54
2023/06/24 05:02:49;;;;;;;;;;;24.70;54.30;;;;;;5074455;28;20368;-54
2023/06/24 05:05:15;;;;;;;;;;;24.70;54.40;;;;;;5073395;28;19967;-54
2023/06/24 05:07:40;;;;;;;;;;;24.80;54.20;;;;;;5072421;28;19931;-54
2023/06/24 05:10:06;;;;;;;;;;;24.80;54.20;;;;;;5063071;28;19967;-54
2023/06/24 05:12:31;;;;;;;;;;;24.80;54.10;;;;;;5074405;28;19908;-54
2023/06/24 05:14:57;;;;;;;;;;;24.80;54.20;;;;;;5074534;28;20159;-54
2023/06/24 05:17:23;;;;;;;;;;;24.80;54.20;;;;;;5072853;28;19921;-55
2023/06/24 05:19:49;;;;;;;;;;;24.80;54.20;;;;;;5060411;28;20011;-55
2023/06/24 05:22:14;;;;;;;;;;;24.80;54.90;;;;;;5053953;28;19916;-54
2023/06/24 05:24:41;;;;;;;;;;;24.80;54.20;;;;;;5053833;28;19920;-54
2023/06/24 05:27:06;;;;;;;;;;;24.70;54.10;;;;;;5065372;28;19913;-53
2023/06/24 05:29:32;;;;;;;;;;;24.80;54.10;;;;;;5073968;28;19914;-54
2023/06/24 05:31:58;;;;;;;;;;;24.80;54.20;;;;;;5073967;28;19908;-55
2023/06/24 05:34:24;;;;;;;;;;;24.80;54.20;;;;;;5106391;28;20414;-54
2023/06/24 05:36:49;;;;;;;;;;;24.80;54.10;;;;;;5071821;28;20027;-54
2023/06/24 05:39:15;;;;;;;;;;;24.80;54.10;;;;;;5071445;28;20365;-54
2023/06/24 05:41:40;;;;;;;;;;;24.90;54.10;;;;;;5094517;28;19912;-54
2023/06/24 05:44:10;;;;;;;;;;;24.80;54.50;;;;;;5063805;28;20003;-55
2023/06/24 05:46:35;;;;;;;;;;;24.80;53.90;;;;;;5065407;28;19921;-54
2023/06/24 05:49:01;;;;;;;;;;;24.90;54.00;;;;;;5073284;28;19916;-55
2023/06/24 05:51:26;;;;;;;;;;;24.80;53.90;;;;;;5066475;28;19912;-54
2023/06/24 05:53:52;;;;;;;;;;;24.80;54.00;;;;;;5060750;28;19916;-54
2023/06/24 05:56:17;;;;;;;;;;;24.80;54.00;;;;;;5073571;28;19918;-54
2023/06/24 05:58:43;;;;;;;;;;;24.80;53.90;;;;;;5073516;28;20434;-54
2023/06/24 06:01:09;;;;;;;;;;;24.80;53.90;;;;;;5060544;28;19962;-54
2023/06/24 06:03:34;;;;;;;;;;;24.80;53.90;;;;;;5073110;28;19916;-54
2023/06/24 06:06:00;;;;;;;;;;;24.80;54.00;;;;;;5105575;28;20007;-54
2023/06/24 06:08:25;;;;;;;;;;;24.70;54.00;;;;;;5072751;28;19966;-55
2023/06/24 06:10:51;;;;;;;;;;;24.70;54.10;;;;;;5072129;28;19920;-54
2023/06/24 06:13:16;;;;;;;;;;;24.70;54.00;;;;;;5073032;28;19916;-54
2023/06/24 06:15:42;;;;;;;;;;;24.70;54.10;;;;;;5073330;28;20158;-54
2023/06/24 06:18:07;;;;;;;;;;;24.70;54.10;;;;;;5071398;28;19912;-55
2023/06/24 06:20:32;;;;;;;;;;;24.70;54.00;;;;;;5070934;28;19920;-54
2023/06/24 06:22:58;;;;;;;;;;;24.80;54.00;;;;;;5056357;28;20312;-54
2023/06/24 06:25:23;;;;;;;;;;;24.80;54.20;;;;;;5085437;28;19920;-54
2023/06/24 06:27:49;;;;;;;;;;;24.80;54.20;;;;;;5066747;28;19928;-54
2023/06/24 06:30:14;;;;;;;;;;;24.80;54.20;;;;;;5061478;28;19912;-54
2023/06/24 06:32:40;;;;;;;;;;;24.70;54.10;;;;;;5101304;28;19937;-54
2023/06/24 06:35:06;;;;;;;;;;;24.70;54.10;;;;;;5067001;28;19936;-54
2023/06/24 06:37:31;;;;;;;;;;;24.70;54.10;;;;;;5070656;28;19959;-54
2023/06/24 06:39:57;;;;;;;;;;;24.70;54.10;;;;;;5071462;28;19912;-54
2023/06/24 06:42:22;;;;;;;;;;;24.70;54.00;;;;;;5072692;28;19912;-54
2023/06/24 06:44:48;;;;;;;;;;;24.70;53.90;;;;;;5070696;28;20364;-54
2023/06/24 06:47:13;;;;;;;;;;;24.70;53.90;;;;;;5072418;28;20335;-55
2023/06/24 06:49:39;;;;;;;;;;;24.70;53.90;;;;;;5072635;28;19912;-54
2023/06/24 06:52:05;;;;;;;;;;;24.70;54.00;;;;;;5069801;28;19959;-54
2023/06/24 06:54:30;;;;;;;;;;;24.70;54.10;;;;;;5062999;28;19973;-54
2023/06/24 06:56:59;;;;;;;;;;;24.70;54.00;;;;;;5072455;28;20428;-54
2023/06/24 06:59:25;;;;;;;;;;;24.70;53.70;;;;;;5072365;28;20349;-55
2023/06/24 07:01:50;;;;;;;;;;;24.70;53.70;;;;;;5069296;28;20038;-54
2023/06/24 07:04:16;;;;;;;;;;;24.80;53.80;;;;;;5072322;28;19912;-54
2023/06/24 07:06:41;;;;;;;;;;;24.70;53.60;;;;;;5070213;28;19920;-54
2023/06/24 07:09:07;;;;;;;;;;;24.70;53.70;;;;;;5071761;28;19916;-54
2023/06/24 07:11:32;;;;;;;;;;;24.70;53.70;;;;;;5071509;28;20440;-54
2023/06/24 07:13:58;;;;;;;;;;;24.70;53.70;;;;;;5072252;28;19909;-54
2023/06/24 07:16:23;;;;;;;;;;;24.70;53.70;;;;;;5070206;28;19955;-54
2023/06/24 07:18:49;;;;;;;;;;;24.70;53.60;;;;;;5072092;28;19966;-54
2023/06/24 07:21:14;;;;;;;;;;;24.80;53.60;;;;;;5071871;28;20394;-54
2023/06/24 07:23:41;;;;;;;;;;;24.80;53.60;;;;;;5071663;28;19923;-54
2023/06/24 07:26:07;;;;;;;;;;;24.80;53.60;;;;;;5070930;28;19919;-54
2023/06/24 07:28:32;;;;;;;;;;;24.70;53.60;;;;;;5070634;28;20018;-54
2023/06/24 07:30:57;;;;;;;;;;;24.70;53.40;;;;;;5072261;28;19908;-54
2023/06/24 07:33:23;;;;;;;;;;;24.80;53.30;;;;;;5071005;28;20387;-54
2023/06/24 07:35:48;;;;;;;;;;;24.80;53.30;;;;;;5069999;28;20388;-54
2023/06/24 07:38:14;;;;;;;;;;;24.90;53.30;;;;;;5067229;28;19971;-54
2023/06/24 07:40:39;;;;;;;;;;;24.80;53.20;;;;;;5070809;28;19919;-54
2023/06/24 07:43:05;;;;;;;;;;;24.80;53.30;;;;;;5071803;28;19909;-54
2023/06/24 07:45:30;;;;;;;;;;;24.80;53.30;;;;;;5066593;28;19929;-54
2023/06/24 07:47:56;;;;;;;;;;;24.90;53.50;;;;;;5058827;28;19927;-54
2023/06/24 07:50:21;;;;;;;;;;;24.80;53.50;;;;;;5069080;28;19912;-54
2023/06/24 07:52:47;;;;;;;;;;;24.80;53.50;;;;;;5062366;28;19962;-54
2023/06/24 07:55:12;;;;;;;;;;;24.80;53.90;;;;;;5062707;28;19924;-55
2023/06/24 07:57:38;;;;;;;;;;;24.80;53.50;;;;;;5066142;28;19917;-54
2023/06/24 08:00:04;;;;;;;;;;;24.80;53.20;;;;;;5055805;28;19982;-54
2023/06/24 08:02:30;;;;;;;;;;;24.80;53.30;;;;;;5070146;28;19919;-53
2023/06/24 08:04:55;;;;;;;;;;;24.80;53.20;;;;;;5071699;28;19928;-55
2023/06/24 08:07:21;;;;;;;;;;;24.80;53.20;;;;;;5065167;28;19912;-55
2023/06/24 08:09:46;;;;;;;;;;;24.90;53.20;;;;;;5056589;28;20008;-55
2023/06/24 08:12:12;;;;;;;;;;;24.80;53.10;;;;;;5083928;28;19909;-54
2023/06/24 08:14:37;;;;;;;;;;;24.90;53.80;;;;;;5053400;28;19912;-54
2023/06/24 08:17:03;;;;;;;;;;;24.90;53.20;;;;;;5070971;28;19917;-55
2023/06/24 08:19:28;;;;;;;;;;;24.90;53.30;;;;;;5071036;28;20244;-54
2023/06/24 08:21:54;;;;;;;;;;;24.90;53.20;;;;;;5067001;28;19916;-55
2023/06/24 08:24:19;;;;;;;;;;;24.90;53.30;;;;;;5055099;28;19924;-54
2023/06/24 08:26:44;;;;;;;;;;;24.90;53.40;;;;;;5071624;28;20005;-54
2023/06/24 08:29:10;;;;;;;;;;;25.00;53.20;;;;;;5071060;28;19912;-55
2023/06/24 08:31:35;;;;;;;;;;;24.90;53.00;;;;;;5069038;28;19924;-54
2023/06/24 08:34:02;;;;;;;;;;;24.90;53.00;;;;;;5070316;28;19918;-54
2023/06/24 08:36:27;;;;;;;;;;;24.90;53.20;;;;;;5070647;28;20285;-54
2023/06/24 08:38:53;;;;;;;;;;;24.90;53.30;;;;;;5070970;28;19912;-54
2023/06/24 08:41:18;;;;;;;;;;;24.90;53.30;;;;;;5063073;28;19959;-54
2023/06/24 08:43:44;;;;;;;;;;;25.00;53.20;;;;;;5068190;28;19926;-54
2023/06/24 08:46:09;;;;;;;;;;;25.00;53.00;;;;;;5059584;28;20000;-54
2023/06/24 08:48:39;;;;;;;;;;;25.00;53.00;;;;;;5054977;28;20031;-54
2023/06/24 08:51:05;;;;;;;;;;;25.00;53.20;;;;;;5062785;28;20391;-54
2023/06/24 08:53:30;;;;;;;;;;;25.00;53.10;;;;;;5092755;28;20007;-54
2023/06/24 08:55:56;;;;;;;;;;;25.00;53.20;;;;;;5064484;28;20339;-54
2023/06/24 08:58:21;;;;;;;;;;;25.00;53.10;;;;;;5067884;28;20335;-54
2023/06/24 09:00:47;;;;;;;;;;;25.00;53.50;;;;;;5074358;28;19963;-54
2023/06/24 09:03:12;;;;;;;;;;;25.00;53.00;;;;;;5074080;28;19926;-54
2023/06/24 09:05:38;;;;;;;;;;;25.00;53.30;;;;;;5066969;28;19917;-54
2023/06/24 09:08:03;;;;;;;;;;;25.00;53.40;;;;;;5073810;28;19917;-54
2023/06/24 09:10:30;;;;;;;;;;;25.00;53.00;;;;;;5074656;28;19916;-55
2023/06/24 09:12:55;;;;;;;;;;;25.10;53.20;;;;;;5074295;28;19912;-54
2023/06/24 09:15:21;;;;;;;;;;;25.10;53.30;;;;;;5071663;28;19920;-54
2023/06/24 09:17:46;;;;;;;;;;;25.10;53.70;;;;;;5054446;28;20350;-54
2023/06/24 09:20:12;;;;;;;;;;;25.10;53.40;;;;;;5054600;28;20281;-54
2023/06/24 09:22:39;;;;;;;;;;;25.10;52.80;;;;;;5053427;28;19916;-55
2023/06/24 09:25:05;;;;;;;;;;;25.10;52.20;;;;;;5065841;28;19922;-55
2023/06/24 09:27:31;;;;;;;;;;;25.10;52.40;;;;;;5068514;28;20011;-55
2023/06/24 09:29:56;;;;;;;;;;;25.10;52.00;;;;;;5069044;28;19912;-54
2023/06/24 09:32:22;;;;;;;;;;;25.10;52.50;;;;;;5070840;28;20288;-54
2023/06/24 09:34:48;;;;;;;;;;;25.10;52.60;;;;;;5095230;28;20328;-54
2023/06/24 09:37:20;;;;;;;;;;;25.20;52.50;;;;;;5053585;28;19912;-55
2023/06/24 09:39:46;;;;;;;;;;;25.20;52.40;;;;;;5052383;28;19908;-55
2023/06/24 09:42:12;;;;;;;;;;;25.20;51.70;;;;;;5053861;28;19995;-54
2023/06/24 09:44:38;;;;;;;;;;;25.20;51.70;;;;;;5064428;28;19917;-54
2023/06/24 09:47:03;;;;;;;;;;;25.20;51.40;;;;;;5073504;28;19925;-55
2023/06/24 09:49:29;;;;;;;;;;;25.30;51.80;;;;;;5073823;28;19920;-55
2023/06/24 09:51:55;;;;;;;;;;;25.30;52.30;;;;;;5071653;28;19951;-55
2023/06/24 09:54:21;;;;;;;;;;;25.30;52.00;;;;;;5073288;28;19958;-54
2023/06/24 09:56:47;;;;;;;;;;;25.40;52.20;;;;;;5070950;28;19931;-54
2023/06/24 09:59:13;;;;;;;;;;;25.40;52.30;;;;;;5067504;28;20273;-54
2023/06/24 10:01:39;;;;;;;;;;;25.40;51.50;;;;;;5073401;28;19997;-54
2023/06/24 10:04:05;;;;;;;;;;;25.30;52.10;;;;;;5073478;28;19912;-54
2023/06/24 10:06:31;;;;;;;;;;;25.40;52.00;;;;;;5072474;28;20058;-54
2023/06/24 10:08:57;;;;;;;;;;;25.40;52.50;;;;;;5093132;28;20431;-54
2023/06/24 10:11:22;;;;;;;;;;;25.40;52.40;;;;;;5063550;28;20228;-54
2023/06/24 10:13:48;;;;;;;;;;;25.50;52.40;;;;;;5071588;28;20017;-54
2023/06/24 10:16:15;;;;;;;;;;;25.60;52.40;;;;;;5073221;28;19990;-54
2023/06/24 10:18:41;;;;;;;;;;;25.60;52.40;;;;;;5093995;28;19916;-54
2023/06/24 10:21:07;;;;;;;;;;;25.60;52.20;;;;;;5053000;28;20388;-54
2023/06/24 10:23:33;;;;;;;;;;;25.60;52.10;;;;;;5056852;28;19917;-55
2023/06/24 10:25:59;;;;;;;;;;;25.60;52.30;;;;;;5085361;28;19913;-55
2023/06/24 10:28:25;;;;;;;;;;;25.60;52.30;;;;;;5053106;28;19909;-54
2023/06/24 10:30:57;;;;;;;;;;;25.70;52.60;;;;;;5085191;28;19916;-54
2023/06/24 10:33:23;;;;;;;;;;;25.70;52.60;;;;;;5070477;28;19920;-53
2023/06/24 10:35:50;;;;;;;;;;;25.70;52.50;;;;;;5073231;28;19958;-55
2023/06/24 10:38:16;;;;;;;;;;;25.70;52.50;;;;;;5071828;28;19995;-55
2023/06/24 10:40:42;;;;;;;;;;;25.70;52.40;;;;;;5069155;28;20003;-55
2023/06/24 10:43:22;;;;;;;;;;;25.70;52.80;;;;;;5105283;28;19912;-54
2023/06/24 10:45:51;;;;;;;;;;;25.70;52.60;;;;;;5070931;28;20245;-54
2023/06/24 10:48:19;;;;;;;;;;;25.80;52.60;;;;;;5072646;28;19908;-54
2023/06/24 10:50:45;;;;;;;;;;;25.80;52.60;;;;;;5104832;28;19912;-54
2023/06/24 10:53:10;;;;;;;;;;;25.80;52.50;;;;;;5059877;28;19909;-54
2023/06/24 10:55:36;;;;;;;;;;;25.80;52.30;;;;;;5054689;28;19913;-54
2023/06/24 10:58:12;;;;;;;;;;;25.90;52.10;;;;;;5086584;28;19920;-54
2023/06/24 11:00:37;;;;;;;;;;;25.90;52.50;;;;;;5052650;28;20011;-54
2023/06/24 11:03:09;;;;;;;;;;;25.80;52.80;;;;;;5062683;28;20045;-54
2023/06/24 11:05:36;;;;;;;;;;;25.70;52.30;;;;;;5062283;28;19924;-55
2023/06/24 11:08:02;;;;;;;;;;;25.80;52.30;;;;;;5066703;28;19912;-55
2023/06/24 11:10:27;;;;;;;;;;;25.80;52.50;;;;;;5069776;28;20353;-54
2023/06/24 11:12:53;;;;;;;;;;;25.90;52.50;;;;;;5058868;28;19921;-55
2023/06/24 11:15:19;;;;;;;;;;;25.90;52.10;;;;;;5062427;28;19916;-54
2023/06/24 11:17:44;;;;;;;;;;;25.90;52.20;;;;;;5062878;28;19975;-54
2023/06/24 11:20:11;;;;;;;;;;;25.90;52.20;;;;;;5063366;28;19979;-54
2023/06/24 11:22:36;;;;;;;;;;;26.00;52.00;;;;;;5062860;28;20017;-54
2023/06/24 11:25:02;;;;;;;;;;;26.00;52.20;;;;;;5069905;28;20400;-54
2023/06/24 11:27:28;;;;;;;;;;;26.10;52.00;;;;;;5071347;28;19958;-54
2023/06/24 11:29:54;;;;;;;;;;;26.10;51.30;;;;;;5063223;28;19928;-54
2023/06/24 11:32:19;;;;;;;;;;;26.00;51.40;;;;;;5099694;28;19924;-54
2023/06/24 11:34:45;;;;;;;;;;;26.00;51.80;;;;;;5062452;28;19915;-55
2023/06/24 11:37:11;;;;;;;;;;;26.10;51.60;;;;;;5070800;28;19935;-54
2023/06/24 11:39:36;;;;;;;;;;;26.10;51.80;;;;;;5069038;28;19917;-54
2023/06/24 11:42:02;;;;;;;;;;;26.10;51.80;;;;;;5071658;28;20386;-55
2023/06/24 11:44:27;;;;;;;;;;;26.10;51.50;;;;;;5054820;28;19924;-54
2023/06/24 11:46:53;;;;;;;;;;;26.20;51.30;;;;;;5058262;28;20458;-54
2023/06/24 11:49:18;;;;;;;;;;;26.20;51.10;;;;;;5065053;28;19923;-54
2023/06/24 11:51:48;;;;;;;;;;;26.10;51.40;;;;;;5054657;28;19917;-54
2023/06/24 11:54:13;;;;;;;;;;;26.20;51.00;;;;;;5083346;28;19938;-54
2023/06/24 11:56:39;;;;;;;;;;;26.10;51.50;;;;;;5058049;28;20372;-54
2023/06/24 11:59:05;;;;;;;;;;;26.10;51.00;;;;;;5066053;28;19999;-54
2023/06/24 12:01:36;;;;;;;;;;;26.10;50.70;;;;;;5066741;28;19927;-54
2023/06/24 12:04:14;;;;;;;;;;;26.10;51.00;;;;;;5094996;28;19924;-54
2023/06/24 12:06:40;;;;;;;;;;;26.20;51.20;;;;;;5071379;28;19924;-55
2023/06/24 12:09:06;;;;;;;;;;;26.30;51.00;;;;;;5071495;28;19908;-55
2023/06/24 12:11:31;;;;;;;;;;;26.30;50.80;;;;;;5068892;28;19999;-55
2023/06/24 12:13:57;;;;;;;;;;;26.30;50.30;;;;;;5069652;28;20003;-55
2023/06/24 12:16:23;;;;;;;;;;;26.20;50.80;;;;;;5085697;28;19908;-55
2023/06/24 12:18:48;;;;;;;;;;;26.00;51.00;;;;;;5069542;28;19912;-54
2023/06/24 12:21:14;;;;;;;;;;;26.10;50.90;;;;;;5088868;28;19916;-55
2023/06/24 12:23:39;;;;;;;;;;;26.10;51.00;;;;;;5064001;28;19920;-55
2023/06/24 12:26:04;;;;;;;;;;;26.00;51.10;;;;;;5066018;28;19913;-54
2023/06/24 12:28:30;;;;;;;;;;;26.10;51.10;;;;;;5072343;28;20307;-55
2023/06/24 12:30:55;;;;;;;;;;;26.10;51.20;;;;;;5072229;28;19917;-54
2023/06/24 12:33:22;;;;;;;;;;;26.10;51.20;;;;;;5072905;28;19919;-55
2023/06/24 12:35:48;;;;;;;;;;;26.10;51.00;;;;;;5073554;28;20384;-54
2023/06/24 12:38:13;;;;;;;;;;;26.10;51.00;;;;;;5074500;28;19913;-54
2023/06/24 12:40:39;;;;;;;;;;;26.20;50.70;;;;;;5076820;28;20403;-54
2023/06/24 12:43:04;;;;;;;;;;;26.10;51.00;;;;;;5074104;28;19916;-55
2023/06/24 12:45:30;;;;;;;;;;;26.10;51.10;;;;;;5072448;28;20296;-54
2023/06/24 12:47:56;;;;;;;;;;;26.10;51.10;;;;;;5072952;28;19908;-55
2023/06/24 12:50:21;;;;;;;;;;;26.10;51.20;;;;;;5071385;28;20403;-55
2023/06/24 12:52:47;;;;;;;;;;;26.00;51.00;;;;;;5081888;28;19912;-55
2023/06/24 12:55:12;;;;;;;;;;;26.00;51.10;;;;;;5074189;28;19908;-54
2023/06/24 12:57:38;;;;;;;;;;;26.20;50.90;;;;;;5073999;28;19993;-54
2023/06/24 13:00:06;;;;;;;;;;;26.20;50.90;;;;;;5074711;28;19917;-54
2023/06/24 13:02:32;;;;;;;;;;;26.10;50.90;;;;;;5067604;28;19932;-54
2023/06/24 13:04:57;;;;;;;;;;;26.20;51.20;;;;;;5071204;28;19921;-54
2023/06/24 13:07:23;;;;;;;;;;;26.30;51.10;;;;;;5069196;28;20214;-55
2023/06/24 13:09:48;;;;;;;;;;;26.30;50.90;;;;;;5072967;28;19965;-55
2023/06/24 13:12:14;;;;;;;;;;;26.20;51.00;;;;;;5074281;28;19916;-54
2023/06/24 13:14:39;;;;;;;;;;;26.20;51.00;;;;;;5059024;28;20368;-54
2023/06/24 13:17:05;;;;;;;;;;;26.20;51.30;;;;;;5066153;28;19955;-55
2023/06/24 13:19:32;;;;;;;;;;;26.20;51.20;;;;;;5069992;28;19920;-55
2023/06/24 13:21:57;;;;;;;;;;;26.10;51.20;;;;;;5053803;28;20312;-54
2023/06/24 13:24:23;;;;;;;;;;;26.10;51.30;;;;;;5059951;28;19928;-55
2023/06/24 13:26:48;;;;;;;;;;;26.00;52.00;;;;;;5065701;28;20007;-54
2023/06/24 13:29:14;;;;;;;;;;;26.10;51.60;;;;;;5068044;28;19916;-54
2023/06/24 13:31:40;;;;;;;;;;;26.10;51.20;;;;;;5072965;28;19917;-54
2023/06/24 13:34:06;;;;;;;;;;;26.10;51.30;;;;;;5065809;28;20016;-54
2023/06/24 13:36:32;;;;;;;;;;;26.20;51.00;;;;;;5069273;28;20011;-54
2023/06/24 13:38:57;;;;;;;;;;;26.20;51.10;;;;;;5066232;28;20339;-54
2023/06/24 13:41:23;;;;;;;;;;;26.20;51.20;;;;;;5071138;28;19917;-54
2023/06/24 13:43:50;;;;;;;;;;;26.20;51.30;;;;;;5074245;28;19916;-54
2023/06/24 13:46:15;;;;;;;;;;;26.20;51.30;;;;;;5070785;28;19920;-54
2023/06/24 13:48:42;;;;;;;;;;;26.20;51.60;;;;;;5072679;28;19919;-54
2023/06/24 13:51:08;;;;;;;;;;;26.20;51.60;;;;;;5061655;28;19920;-54
2023/06/24 13:53:33;;;;;;;;;;;26.20;51.30;;;;;;5057740;28;19917;-55
2023/06/24 13:55:59;;;;;;;;;;;26.20;51.20;;;;;;5060844;28;19916;-54
2023/06/24 13:58:24;;;;;;;;;;;26.10;51.10;;;;;;5073307;28;19919;-54
2023/06/24 14:00:50;;;;;;;;;;;26.10;51.10;;;;;;5073760;28;19909;-54
2023/06/24 14:03:15;;;;;;;;;;;26.20;51.30;;;;;;5071325;28;20368;-54
2023/06/24 14:05:41;;;;;;;;;;;26.30;51.10;;;;;;5106538;28;20075;-55
2023/06/24 14:08:06;;;;;;;;;;;26.40;50.80;;;;;;5053963;28;19920;-54